createdAt,value
2022-07-28T00:00:12.678Z,2.30
2022-07-28T00:03:00.229Z,3.30
2022-07-28T00:05:27.744Z,2.78
2022-07-28T00:07:54.813Z,2.95
2022-07-28T00:10:22.213Z,2.30
2022-07-28T00:12:49.398Z,3.67
2022-07-28T00:15:16.386Z,2.45
2022-07-28T00:17:43.646Z,2.70
2022-07-28T00:20:11.344Z,3.37
2022-07-28T00:22:43.143Z,2.77
2022-07-28T00:25:10.607Z,2.90
2022-07-28T00:27:38.084Z,2.28
2022-07-28T00:30:08.496Z,3.10
2022-07-28T00:32:35.731Z,2.67
2022-07-28T00:35:03.628Z,2.37
2022-07-28T00:37:30.630Z,2.72
2022-07-28T00:39:58.076Z,3.17
2022-07-28T00:42:25.270Z,3.08
2022-07-28T00:44:52.299Z,2.77
2022-07-28T00:47:20.190Z,2.70
2022-07-28T00:49:48.339Z,2.75
2022-07-28T00:52:17.513Z,3.00
2022-07-28T00:54:44.611Z,2.60
2022-07-28T00:57:11.755Z,2.58
2022-07-28T00:59:38.685Z,2.65
2022-07-28T01:02:05.945Z,2.40
2022-07-28T01:04:33.489Z,4.20
2022-07-28T01:07:12.312Z,2.55
2022-07-28T01:09:48.590Z,2.60
2022-07-28T01:12:25.205Z,2.95
2022-07-28T01:15:03.593Z,2.35
2022-07-28T01:17:45.013Z,2.80
2022-07-28T01:20:15.361Z,2.47
2022-07-28T01:22:56.611Z,2.63
2022-07-28T01:25:48.399Z,2.47
2022-07-28T01:28:34.128Z,3.07
2022-07-28T01:31:05.470Z,2.70
2022-07-28T01:33:42.607Z,2.63
2022-07-28T01:36:17.604Z,2.57
2022-07-28T01:38:47.580Z,2.50
2022-07-28T01:41:21.049Z,2.77
2022-07-28T01:44:01.286Z,2.43
2022-07-28T01:46:29.845Z,2.30
2022-07-28T01:48:58.909Z,2.83
2022-07-28T01:51:30.559Z,2.80
2022-07-28T01:54:00.367Z,2.97
2022-07-28T01:56:29.342Z,3.15
2022-07-28T01:58:59.958Z,2.93
2022-07-28T02:01:28.390Z,3.13
2022-07-28T02:03:59.179Z,3.03
2022-07-28T02:06:26.929Z,2.80
2022-07-28T02:08:56.294Z,2.80
2022-07-28T02:11:41.649Z,2.63
2022-07-28T02:14:32.989Z,2.70
2022-07-28T02:17:10.220Z,3.05
2022-07-28T02:19:37.917Z,3.27
2022-07-28T02:22:06.755Z,2.55
2022-07-28T02:24:34.800Z,2.17
2022-07-28T02:27:10.325Z,3.35
2022-07-28T02:29:51.222Z,2.87
2022-07-28T02:32:29.546Z,2.63
2022-07-28T02:35:10.113Z,2.43
2022-07-28T02:37:45.296Z,3.27
2022-07-28T02:40:15.353Z,2.97
2022-07-28T02:42:47.024Z,3.13
2022-07-28T02:45:16.739Z,2.75
2022-07-28T02:47:52.188Z,2.83
2022-07-28T02:50:24.459Z,2.67
2022-07-28T02:52:56.348Z,2.40
2022-07-28T02:55:24.674Z,2.70
2022-07-28T02:57:56.807Z,2.47
2022-07-28T03:00:26.113Z,2.58
2022-07-28T03:02:55.318Z,2.38
2022-07-28T03:05:23.014Z,2.60
2022-07-28T03:07:52.882Z,2.05
2022-07-28T03:10:32.999Z,2.60
2022-07-28T03:13:03.769Z,3.03
2022-07-28T03:15:31.262Z,2.97
2022-07-28T03:17:59.726Z,2.40
2022-07-28T03:20:27.206Z,3.03
2022-07-28T03:22:55.372Z,2.60
2022-07-28T03:25:22.652Z,2.55
2022-07-28T03:27:52.775Z,2.40
2022-07-28T03:30:24.639Z,2.20
2022-07-28T03:32:55.821Z,2.77
2022-07-28T03:35:24.955Z,2.50
2022-07-28T03:38:00.546Z,2.23
2022-07-28T03:40:29.853Z,3.10
2022-07-28T03:42:59.681Z,2.75
2022-07-28T03:45:27.129Z,2.15
2022-07-28T03:47:56.527Z,2.38
2022-07-28T03:50:34.063Z,4.13
2022-07-28T03:53:04.945Z,2.97
2022-07-28T03:55:32.247Z,2.25
2022-07-28T03:57:59.350Z,2.53
2022-07-28T04:00:26.414Z,2.50
2022-07-28T04:02:53.632Z,2.50
2022-07-28T04:05:20.666Z,2.58
2022-07-28T04:07:47.840Z,2.20
2022-07-28T04:10:17.511Z,2.92
2022-07-28T04:12:48.915Z,2.40
2022-07-28T04:15:17.944Z,2.25
2022-07-28T04:17:45.987Z,2.17
2022-07-28T04:20:12.974Z,3.10
2022-07-28T04:22:40.390Z,2.30
2022-07-28T04:25:07.788Z,2.50
2022-07-28T04:27:37.663Z,2.47
2022-07-28T04:30:13.253Z,2.30
2022-07-28T04:32:41.033Z,2.67
2022-07-28T04:35:11.971Z,2.40
2022-07-28T04:37:41.798Z,2.60
2022-07-28T04:40:10.660Z,2.07
2022-07-28T04:42:38.758Z,2.30
2022-07-28T04:45:08.453Z,2.35
2022-07-28T04:47:35.560Z,2.45
2022-07-28T04:50:03.605Z,2.88
2022-07-28T04:52:30.636Z,2.78
2022-07-28T04:54:57.612Z,2.83
2022-07-28T04:57:26.816Z,2.90
2022-07-28T04:59:56.812Z,3.07
2022-07-28T05:02:24.824Z,2.17
2022-07-28T05:04:52.520Z,2.13
2022-07-28T05:07:19.851Z,2.40
2022-07-28T05:09:46.787Z,2.47
2022-07-28T05:12:13.929Z,2.58
2022-07-28T05:14:40.962Z,2.38
2022-07-28T05:17:08.025Z,2.40
2022-07-28T05:19:37.513Z,2.42
2022-07-28T05:22:04.668Z,2.15
2022-07-28T05:24:31.994Z,2.50
2022-07-28T05:26:59.369Z,2.22
2022-07-28T05:29:26.434Z,2.28
2022-07-28T05:32:16.189Z,2.58
2022-07-28T05:34:43.897Z,2.47
2022-07-28T05:37:10.997Z,2.53
2022-07-28T05:39:38.126Z,2.22
2022-07-28T05:42:05.254Z,2.10
2022-07-28T05:44:37.580Z,2.45
2022-07-28T05:47:06.191Z,2.20
2022-07-28T05:49:33.730Z,2.33
2022-07-28T05:52:00.837Z,2.35
2022-07-28T05:54:28.272Z,2.47
2022-07-28T05:56:55.290Z,1.88
2022-07-28T05:59:22.191Z,2.78
2022-07-28T06:01:49.387Z,2.47
2022-07-28T06:04:27.806Z,2.30
2022-07-28T06:06:55.765Z,2.25
2022-07-28T06:09:22.932Z,2.10
2022-07-28T06:11:50.831Z,2.88
2022-07-28T06:14:19.192Z,2.30
2022-07-28T06:16:51.293Z,2.05
2022-07-28T06:19:19.430Z,1.98
2022-07-28T06:21:47.693Z,1.85
2022-07-28T06:24:15.154Z,1.88
2022-07-28T06:26:45.005Z,1.98
2022-07-28T06:29:12.920Z,1.70
2022-07-28T06:31:40.169Z,1.70
2022-07-28T06:34:07.298Z,2.50
2022-07-28T06:36:34.547Z,2.22
2022-07-28T06:39:02.199Z,1.60
2022-07-28T06:41:29.313Z,1.35
2022-07-28T06:43:56.449Z,1.50
2022-07-28T06:46:23.448Z,1.65
2022-07-28T06:48:50.714Z,1.77
2022-07-28T06:51:20.021Z,1.80
2022-07-28T06:53:48.720Z,1.80
2022-07-28T06:56:16.309Z,1.52
2022-07-28T06:58:47.100Z,1.85
2022-07-28T07:01:15.373Z,1.85
2022-07-28T07:03:43.451Z,1.40
2022-07-28T07:06:11.180Z,1.42
2022-07-28T07:08:38.454Z,1.35
2022-07-28T07:11:05.598Z,1.55
2022-07-28T07:13:33.197Z,1.73
2022-07-28T07:16:00.777Z,1.80
2022-07-28T07:18:27.969Z,2.00
2022-07-28T07:20:57.543Z,1.52
2022-07-28T07:23:25.016Z,1.40
2022-07-28T07:25:52.007Z,1.40
2022-07-28T07:28:19.160Z,1.60
2022-07-28T07:30:46.190Z,1.42
2022-07-28T07:33:13.215Z,1.73
2022-07-28T07:35:40.424Z,1.75
2022-07-28T07:38:07.471Z,1.58
2022-07-28T07:40:34.943Z,1.42
2022-07-28T07:43:02.092Z,1.60
2022-07-28T07:45:28.986Z,2.28
2022-07-28T07:47:55.988Z,1.60
2022-07-28T07:50:23.407Z,2.17
2022-07-28T07:52:50.549Z,2.03
2022-07-28T07:55:17.928Z,2.25
2022-07-28T07:57:45.376Z,1.42
2022-07-28T08:00:28.108Z,1.63
2022-07-28T08:02:58.288Z,1.95
2022-07-28T08:05:35.016Z,1.60
2022-07-28T08:08:05.403Z,1.60
2022-07-28T08:10:33.933Z,1.63
2022-07-28T08:13:00.982Z,1.55
2022-07-28T08:15:28.113Z,1.58
2022-07-28T08:17:55.259Z,1.75
2022-07-28T08:20:22.802Z,1.27
2022-07-28T08:22:54.433Z,1.38
2022-07-28T08:25:22.203Z,1.67
2022-07-28T08:27:49.480Z,1.40
2022-07-28T08:30:23.158Z,1.95
2022-07-28T08:32:57.079Z,1.10
2022-07-28T08:35:34.985Z,1.92
2022-07-28T08:38:04.726Z,1.67
2022-07-28T08:40:32.813Z,1.58
2022-07-28T08:43:09.336Z,1.33
2022-07-28T08:45:37.510Z,1.15
2022-07-28T08:48:09.077Z,1.40
2022-07-28T08:50:38.699Z,1.48
2022-07-28T08:53:06.850Z,1.40
2022-07-28T08:55:36.125Z,1.30
2022-07-28T08:58:03.743Z,1.75
2022-07-28T09:00:31.000Z,1.58
2022-07-28T09:02:59.565Z,1.48
2022-07-28T09:05:27.705Z,1.55
2022-07-28T09:07:55.817Z,1.58
2022-07-28T09:10:23.614Z,1.20
2022-07-28T09:12:51.169Z,1.92
2022-07-28T09:15:18.582Z,1.50
2022-07-28T09:17:45.506Z,2.75
2022-07-28T09:20:12.558Z,1.33
2022-07-28T09:22:59.367Z,1.67
2022-07-28T09:25:27.081Z,1.10
2022-07-28T09:27:55.656Z,1.33
2022-07-28T09:30:34.279Z,1.20
2022-07-28T09:33:42.105Z,1.40
2022-07-28T09:36:16.097Z,1.42
2022-07-28T09:38:43.807Z,1.55
2022-07-28T09:41:11.294Z,1.48
2022-07-28T09:43:44.122Z,1.73
2022-07-28T09:46:20.496Z,1.48
2022-07-28T09:48:52.404Z,1.42
2022-07-28T09:51:22.725Z,1.60
2022-07-28T09:53:50.423Z,1.70
2022-07-28T09:56:17.691Z,1.58
2022-07-28T09:58:57.368Z,1.08
2022-07-28T10:01:29.211Z,1.20
2022-07-28T10:04:04.491Z,1.20
2022-07-28T10:06:33.650Z,1.08
2022-07-28T10:09:03.410Z,1.10
2022-07-28T10:11:31.441Z,1.30
2022-07-28T10:14:07.171Z,1.17
2022-07-28T10:16:43.168Z,1.05
2022-07-28T10:19:10.254Z,1.90
2022-07-28T10:21:44.198Z,1.25
2022-07-28T10:24:22.132Z,1.25
2022-07-28T10:26:52.658Z,1.65
2022-07-28T10:29:21.763Z,1.10
2022-07-28T10:31:57.901Z,1.58
2022-07-28T10:34:43.884Z,1.38
2022-07-28T10:37:18.761Z,1.30
2022-07-28T10:39:56.423Z,1.27
2022-07-28T10:42:24.268Z,1.23
2022-07-28T10:44:53.868Z,1.55
2022-07-28T10:47:23.559Z,1.17
2022-07-28T10:49:51.488Z,1.20
2022-07-28T10:52:45.909Z,1.80
2022-07-28T10:55:21.741Z,1.30
2022-07-28T10:58:11.943Z,1.30
2022-07-28T11:00:56.789Z,1.55
2022-07-28T11:03:44.062Z,1.40
2022-07-28T11:06:31.440Z,1.33
2022-07-28T11:09:15.477Z,1.67
2022-07-28T11:11:46.003Z,1.55
2022-07-28T11:14:26.020Z,1.52
2022-07-28T11:17:00.201Z,1.08
2022-07-28T11:19:40.407Z,1.55
2022-07-28T11:22:18.350Z,1.70
2022-07-28T11:24:58.375Z,1.48
2022-07-28T11:27:46.077Z,1.73
2022-07-28T11:30:44.998Z,1.40
2022-07-28T11:33:12.004Z,1.35
2022-07-28T11:35:39.106Z,1.33
2022-07-28T11:38:06.427Z,1.35
2022-07-28T11:40:39.266Z,1.60
2022-07-28T11:43:35.374Z,1.80
2022-07-28T11:46:04.507Z,1.40
2022-07-28T11:48:33.000Z,1.92
2022-07-28T11:51:02.839Z,1.70
2022-07-28T11:53:50.840Z,1.30
2022-07-28T11:56:27.819Z,1.38
2022-07-28T11:59:04.222Z,1.50
2022-07-28T12:01:32.459Z,1.10
2022-07-28T12:04:13.367Z,1.50
2022-07-28T12:06:43.105Z,1.35
2022-07-28T12:09:11.676Z,1.20
2022-07-28T12:11:42.686Z,1.70
2022-07-28T12:14:15.693Z,1.90
2022-07-28T12:16:45.246Z,1.52
2022-07-28T12:19:17.637Z,1.35
2022-07-28T12:21:48.306Z,1.40
2022-07-28T12:24:19.578Z,1.40
2022-07-28T12:26:49.691Z,1.70
2022-07-28T12:29:20.380Z,1.70
2022-07-28T12:31:52.666Z,1.63
2022-07-28T12:34:26.644Z,1.85
2022-07-28T12:36:57.835Z,1.40
2022-07-28T12:39:26.202Z,1.20
2022-07-28T12:42:03.625Z,1.48
2022-07-28T12:44:41.158Z,1.20
2022-07-28T12:47:11.919Z,1.63
2022-07-28T12:49:41.215Z,1.30
2022-07-28T12:52:22.920Z,1.48
2022-07-28T12:54:56.389Z,1.65
2022-07-28T12:57:43.278Z,1.73
2022-07-28T13:00:16.796Z,3.60
2022-07-28T13:02:43.779Z,1.30
2022-07-28T13:05:54.420Z,1.38
2022-07-28T13:08:23.504Z,1.48
2022-07-28T13:10:56.703Z,1.23
2022-07-28T13:13:24.892Z,1.88
2022-07-28T13:16:11.970Z,1.10
2022-07-28T13:18:43.865Z,1.40
2022-07-28T13:21:11.366Z,1.50
2022-07-28T13:23:38.707Z,1.60
2022-07-28T13:26:07.377Z,1.13
2022-07-28T13:28:34.837Z,1.48
2022-07-28T13:31:01.890Z,1.60
2022-07-28T13:33:29.220Z,1.75
2022-07-28T13:35:56.411Z,1.45
2022-07-28T13:38:23.446Z,1.52
2022-07-28T13:40:51.720Z,1.50
2022-07-28T13:43:18.732Z,2.00
2022-07-28T13:45:47.614Z,1.35
2022-07-28T13:48:14.970Z,1.30
2022-07-28T13:50:41.896Z,1.40
2022-07-28T13:53:33.750Z,1.15
2022-07-28T13:56:00.884Z,1.30
2022-07-28T13:58:28.226Z,1.27
2022-07-28T14:00:56.898Z,1.30
2022-07-28T14:03:24.266Z,2.70
2022-07-28T14:05:51.849Z,1.35
2022-07-28T14:08:19.775Z,1.52
2022-07-28T14:10:48.505Z,1.30
2022-07-28T14:13:15.593Z,1.23
2022-07-28T14:15:42.578Z,1.52
2022-07-28T14:18:09.796Z,1.73
2022-07-28T14:20:36.968Z,1.27
2022-07-28T14:23:04.071Z,1.58
2022-07-28T14:25:48.200Z,1.25
2022-07-28T14:28:15.883Z,1.80
2022-07-28T14:30:43.046Z,1.58
2022-07-28T14:33:10.124Z,1.45
2022-07-28T14:35:37.211Z,1.85
2022-07-28T14:38:49.813Z,1.52
2022-07-28T14:40:52.748Z,1.25
2022-07-28T14:43:20.243Z,1.33
2022-07-28T14:46:01.456Z,1.38
2022-07-28T14:48:34.988Z,1.58
2022-07-28T14:51:01.896Z,1.88
2022-07-28T14:53:29.106Z,1.88
2022-07-28T14:55:56.397Z,1.27
2022-07-28T14:58:23.341Z,1.30
2022-07-28T15:00:50.408Z,1.50
2022-07-28T15:03:17.712Z,1.30
2022-07-28T15:05:44.737Z,1.35
2022-07-28T15:08:11.698Z,1.40
2022-07-28T15:10:39.000Z,1.20
2022-07-28T15:13:05.998Z,1.27
2022-07-28T15:15:33.851Z,1.25
2022-07-28T15:18:01.019Z,1.27
2022-07-28T15:20:28.101Z,1.00
2022-07-28T15:22:55.115Z,1.17
2022-07-28T15:25:22.352Z,1.33
2022-07-28T15:27:49.301Z,1.08
2022-07-28T15:30:16.482Z,1.30
2022-07-28T15:32:56.899Z,1.80
2022-07-28T15:35:25.657Z,1.52
2022-07-28T15:37:53.029Z,1.38
2022-07-28T15:40:20.301Z,1.30
2022-07-28T15:42:47.295Z,1.30
2022-07-28T15:45:14.639Z,1.48
2022-07-28T15:47:41.819Z,1.70
2022-07-28T15:50:08.937Z,0.85
2022-07-28T15:52:36.102Z,1.45
2022-07-28T15:55:03.166Z,1.50
2022-07-28T15:57:37.546Z,1.65
2022-07-28T16:00:06.564Z,1.30
2022-07-28T16:02:33.659Z,1.17
2022-07-28T16:05:01.256Z,0.98
2022-07-28T16:07:29.534Z,1.67
2022-07-28T16:09:56.770Z,1.25
2022-07-28T16:12:25.526Z,1.33
2022-07-28T16:14:56.713Z,1.42
2022-07-28T16:17:24.562Z,1.33
2022-07-28T16:19:51.943Z,1.35
2022-07-28T16:22:20.513Z,1.13
2022-07-28T16:24:48.058Z,1.45
2022-07-28T16:27:15.220Z,1.67
2022-07-28T16:29:43.618Z,1.38
2022-07-28T16:32:11.270Z,1.70
2022-07-28T16:34:38.249Z,1.20
2022-07-28T16:37:06.127Z,1.40
2022-07-28T16:39:34.517Z,1.63
2022-07-28T16:42:02.862Z,1.40
2022-07-28T16:44:30.724Z,1.60
2022-07-28T16:46:58.259Z,1.20
2022-07-28T16:49:25.385Z,2.05
2022-07-28T16:51:52.942Z,1.23
2022-07-28T16:54:20.581Z,1.70
2022-07-28T16:56:48.196Z,1.83
2022-07-28T16:59:15.361Z,1.48
2022-07-28T17:01:46.238Z,1.60
2022-07-28T17:04:15.504Z,1.35
2022-07-28T17:06:43.096Z,1.55
2022-07-28T17:09:10.875Z,1.83
2022-07-28T17:11:38.073Z,2.08
2022-07-28T17:14:05.319Z,1.88
2022-07-28T17:16:32.336Z,1.50
2022-07-28T17:18:59.627Z,1.77
2022-07-28T17:21:27.179Z,1.90
2022-07-28T17:23:54.390Z,1.80
2022-07-28T17:29:09.875Z,1.58
2022-07-28T17:31:38.468Z,1.45
2022-07-28T17:34:05.796Z,1.70
2022-07-28T17:36:35.496Z,1.35
2022-07-28T17:39:03.551Z,5.45
2022-07-28T17:41:30.697Z,2.75
2022-07-28T17:43:57.952Z,1.40
2022-07-28T17:46:26.732Z,1.33
2022-07-28T17:48:54.239Z,1.10
2022-07-28T17:51:21.492Z,1.40
2022-07-28T17:53:48.965Z,1.05
2022-07-28T17:56:17.704Z,1.30
2022-07-28T17:58:46.479Z,1.23
2022-07-28T18:01:15.254Z,1.48
2022-07-28T18:03:56.661Z,2.10
2022-07-28T18:06:34.648Z,1.35
2022-07-28T18:09:08.333Z,1.40
2022-07-28T18:11:37.812Z,1.90
2022-07-28T18:14:24.034Z,1.98
2022-07-28T18:16:51.131Z,1.38
2022-07-28T18:19:18.129Z,1.83
2022-07-28T18:21:45.036Z,1.85
2022-07-28T18:24:12.472Z,1.88
2022-07-28T18:26:39.691Z,1.90
2022-07-28T18:29:06.944Z,1.80
2022-07-28T18:31:34.091Z,1.80
2022-07-28T18:34:01.649Z,1.70
2022-07-28T18:36:28.638Z,1.48
2022-07-28T18:38:56.110Z,1.88
2022-07-28T18:41:23.102Z,2.25
2022-07-28T18:43:50.203Z,1.65
2022-07-28T18:46:17.336Z,1.98
2022-07-28T18:48:44.393Z,1.45
2022-07-28T18:51:15.251Z,1.80
2022-07-28T18:53:42.461Z,2.13
2022-07-28T18:56:09.526Z,2.95
2022-07-28T18:58:36.592Z,3.58
2022-07-28T19:01:03.734Z,3.70
2022-07-28T19:03:37.015Z,3.90
2022-07-28T19:06:04.745Z,3.85
2022-07-28T19:08:31.965Z,5.85
2022-07-28T19:10:58.903Z,6.53
2022-07-28T19:13:26.207Z,6.55
2022-07-28T19:15:53.288Z,6.03
2022-07-28T19:18:20.466Z,5.07
2022-07-28T19:20:47.712Z,3.17
2022-07-28T19:23:14.687Z,3.42
2022-07-28T19:25:41.721Z,3.10
2022-07-28T19:28:08.873Z,3.20
2022-07-28T19:30:36.145Z,3.05
2022-07-28T19:33:03.953Z,2.90
2022-07-28T19:35:31.106Z,2.30
2022-07-28T19:38:00.150Z,2.85
2022-07-28T19:40:31.854Z,2.72
2022-07-28T19:43:00.170Z,1.98
2022-07-28T19:45:27.452Z,2.42
2022-07-28T19:47:54.829Z,2.10
2022-07-28T19:50:22.419Z,3.40
2022-07-28T19:52:49.981Z,2.28
2022-07-28T19:55:17.674Z,2.35
2022-07-28T19:57:47.816Z,2.30
2022-07-28T20:00:17.585Z,2.40
2022-07-28T20:02:46.016Z,2.75
2022-07-28T20:05:13.687Z,2.20
2022-07-28T20:07:40.645Z,2.53
2022-07-28T20:10:08.279Z,2.90
2022-07-28T20:12:36.777Z,2.28
2022-07-28T20:15:05.696Z,2.17
2022-07-28T20:17:40.186Z,2.22
2022-07-28T20:20:10.011Z,2.33
2022-07-28T20:22:39.434Z,2.92
2022-07-28T20:25:09.281Z,2.35
2022-07-28T20:27:40.593Z,2.30
2022-07-28T20:30:12.962Z,2.83
2022-07-28T20:32:42.120Z,2.20
2022-07-28T20:35:10.137Z,2.00
2022-07-28T20:37:37.909Z,2.00
2022-07-28T20:40:06.576Z,2.72
2022-07-28T20:42:33.758Z,2.33
2022-07-28T20:45:00.912Z,2.53
2022-07-28T20:47:28.284Z,2.65
2022-07-28T20:49:55.545Z,2.80
2022-07-28T20:52:23.525Z,2.63
2022-07-28T20:54:54.228Z,3.25
2022-07-28T20:57:22.533Z,3.33
2022-07-28T20:59:51.369Z,3.50
2022-07-28T21:02:23.159Z,3.00
2022-07-28T21:04:50.909Z,4.28
2022-07-28T21:07:59.440Z,2.22
2022-07-28T21:10:10.228Z,2.45
2022-07-28T21:12:38.018Z,2.35
2022-07-28T21:15:06.497Z,2.22
2022-07-28T21:17:33.841Z,2.75
2022-07-28T21:20:00.831Z,2.50
2022-07-28T21:22:27.860Z,2.30
2022-07-28T21:24:55.743Z,2.50
2022-07-28T21:27:23.636Z,2.17
2022-07-28T21:32:18.429Z,2.38
2022-07-28T21:34:45.976Z,2.25
2022-07-28T21:37:13.765Z,2.03
2022-07-28T21:39:41.041Z,2.30
2022-07-28T21:42:09.319Z,2.70
2022-07-28T21:44:37.663Z,2.50
2022-07-28T21:47:05.097Z,2.40
2022-07-28T21:49:32.498Z,2.50
2022-07-28T21:51:59.874Z,2.13
2022-07-28T21:54:27.716Z,2.88
2022-07-28T21:56:54.718Z,2.17
2022-07-28T21:59:21.915Z,2.53
2022-07-28T22:01:49.218Z,2.50
2022-07-28T22:04:17.028Z,2.42
2022-07-28T22:06:46.590Z,2.53
2022-07-28T22:09:15.168Z,2.75
2022-07-28T22:11:42.579Z,2.40
2022-07-28T22:14:09.993Z,2.95
2022-07-28T22:16:37.437Z,2.13
2022-07-28T22:19:04.620Z,2.15
2022-07-28T22:21:31.959Z,2.10
2022-07-28T22:23:59.071Z,2.80
2022-07-28T22:26:26.161Z,2.53
2022-07-28T22:28:53.040Z,2.80
2022-07-28T22:31:20.342Z,2.40
2022-07-28T22:33:47.300Z,2.45
2022-07-28T22:36:14.266Z,2.25
2022-07-28T22:38:41.348Z,1.95
2022-07-28T22:41:09.654Z,2.03
2022-07-28T22:43:37.314Z,2.13
2022-07-28T22:46:04.581Z,2.08
2022-07-28T22:48:31.594Z,2.78
2022-07-28T22:50:58.677Z,2.40
2022-07-28T22:53:25.869Z,2.45
2022-07-28T22:55:52.823Z,2.13
2022-07-28T22:58:19.806Z,3.05
2022-07-28T23:00:47.180Z,2.67
2022-07-28T23:03:16.220Z,2.45
2022-07-28T23:05:43.192Z,2.30
2022-07-28T23:08:10.582Z,2.95
2022-07-28T23:10:38.154Z,2.78
2022-07-28T23:13:05.131Z,2.10
2022-07-28T23:15:39.541Z,2.42
2022-07-28T23:18:14.278Z,2.25
2022-07-28T23:20:42.620Z,2.83
2022-07-28T23:23:10.609Z,2.28
2022-07-28T23:25:39.670Z,2.50
2022-07-28T23:28:07.569Z,2.45
2022-07-28T23:30:34.986Z,2.33
2022-07-28T23:33:02.068Z,2.75
2022-07-28T23:35:29.390Z,2.42
2022-07-28T23:37:56.635Z,2.67
2022-07-28T23:40:23.875Z,2.50
2022-07-28T23:42:51.040Z,2.90
2022-07-28T23:45:18.034Z,2.50
2022-07-28T23:47:45.057Z,2.67
2022-07-28T23:50:12.272Z,3.15
2022-07-28T23:52:39.197Z,3.20
2022-07-28T23:55:06.762Z,2.80
2022-07-28T23:57:34.036Z,2.72
